sensor_id;sensor_type;location;lat;lon;timestamp;P1;durP1;ratioP1;P2;durP2;ratioP2
18144;SDS011;14857;41.200;-8.326;2022-08-18T00:01:14;8.57;;;2.00;;
18144;SDS011;14857;41.200;-8.326;2022-08-18T00:03:45;6.07;;;2.15;;
18144;SDS011;14857;41.200;-8.326;2022-08-18T00:06:29;8.45;;;1.75;;
18144;SDS011;14857;41.200;-8.326;2022-08-18T00:08:58;6.25;;;1.73;;
18144;SDS011;14857;41.200;-8.326;2022-08-18T00:11:29;5.43;;;1.95;;
18144;SDS011;14857;41.200;-8.326;2022-08-18T00:14:09;11.32;;;2.10;;
18144;SDS011;14857;41.200;-8.326;2022-08-18T00:16:51;11.02;;;2.13;;
18144;SDS011;14857;41.200;-8.326;2022-08-18T00:19:21;3.85;;;1.40;;
18144;SDS011;14857;41.200;-8.326;2022-08-18T00:22:12;4.68;;;1.98;;
18144;SDS011;14857;41.200;-8.326;2022-08-18T00:24:44;8.48;;;2.17;;
18144;SDS011;14857;41.200;-8.326;2022-08-18T00:27:19;6.82;;;2.10;;
18144;SDS011;14857;41.200;-8.326;2022-08-18T00:29:56;7.95;;;2.10;;
18144;SDS011;14857;41.200;-8.326;2022-08-18T00:32:28;7.55;;;2.03;;
18144;SDS011;14857;41.200;-8.326;2022-08-18T00:35:04;7.07;;;2.10;;
18144;SDS011;14857;41.200;-8.326;2022-08-18T00:37:35;5.82;;;2.03;;
18144;SDS011;14857;41.200;-8.326;2022-08-18T00:40:04;7.15;;;2.60;;
18144;SDS011;14857;41.200;-8.326;2022-08-18T00:43:14;6.07;;;1.80;;
18144;SDS011;14857;41.200;-8.326;2022-08-18T00:47:13;7.72;;;2.67;;
18144;SDS011;14857;41.200;-8.326;2022-08-18T00:51:07;7.15;;;2.20;;
18144;SDS011;14857;41.200;-8.326;2022-08-18T00:54:52;5.20;;;1.63;;
18144;SDS011;14857;41.200;-8.326;2022-08-18T01:08:19;9.95;;;2.47;;
18144;SDS011;14857;41.200;-8.326;2022-08-18T01:12:40;8.65;;;1.98;;
18144;SDS011;14857;41.200;-8.326;2022-08-18T01:15:14;6.13;;;2.35;;
18144;SDS011;14857;41.200;-8.326;2022-08-18T01:17:54;6.50;;;2.08;;
18144;SDS011;14857;41.200;-8.326;2022-08-18T01:20:42;8.48;;;1.98;;
18144;SDS011;14857;41.200;-8.326;2022-08-18T01:23:36;9.80;;;2.25;;
18144;SDS011;14857;41.200;-8.326;2022-08-18T01:26:13;9.38;;;1.83;;
18144;SDS011;14857;41.200;-8.326;2022-08-18T01:28:43;6.80;;;2.13;;
18144;SDS011;14857;41.200;-8.326;2022-08-18T01:31:27;5.50;;;1.92;;
18144;SDS011;14857;41.200;-8.326;2022-08-18T01:33:58;11.68;;;2.80;;
18144;SDS011;14857;41.200;-8.326;2022-08-18T01:36:28;3.83;;;1.70;;
18144;SDS011;14857;41.200;-8.326;2022-08-18T01:39:08;5.20;;;1.88;;
18144;SDS011;14857;41.200;-8.326;2022-08-18T01:42:12;7.57;;;2.42;;
18144;SDS011;14857;41.200;-8.326;2022-08-18T01:44:59;4.05;;;2.08;;
18144;SDS011;14857;41.200;-8.326;2022-08-18T01:47:39;6.93;;;2.58;;
18144;SDS011;14857;41.200;-8.326;2022-08-18T01:50:39;7.75;;;2.28;;
18144;SDS011;14857;41.200;-8.326;2022-08-18T01:53:19;8.73;;;2.10;;
18144;SDS011;14857;41.200;-8.326;2022-08-18T01:56:00;7.45;;;2.10;;
18144;SDS011;14857;41.200;-8.326;2022-08-18T01:58:57;10.18;;;2.40;;
18144;SDS011;14857;41.200;-8.326;2022-08-18T02:02:09;14.93;;;2.72;;
18144;SDS011;14857;41.200;-8.326;2022-08-18T02:04:58;9.50;;;2.17;;
18144;SDS011;14857;41.200;-8.326;2022-08-18T02:07:31;4.75;;;2.20;;
18144;SDS011;14857;41.200;-8.326;2022-08-18T02:10:11;4.82;;;2.28;;
18144;SDS011;14857;41.200;-8.326;2022-08-18T02:12:49;7.25;;;1.95;;
18144;SDS011;14857;41.200;-8.326;2022-08-18T02:15:22;10.85;;;2.63;;
18144;SDS011;14857;41.200;-8.326;2022-08-18T02:18:00;5.82;;;2.20;;
18144;SDS011;14857;41.200;-8.326;2022-08-18T02:21:10;11.48;;;2.33;;
18144;SDS011;14857;41.200;-8.326;2022-08-18T02:23:48;7.15;;;2.10;;
18144;SDS011;14857;41.200;-8.326;2022-08-18T02:26:22;9.85;;;2.72;;
18144;SDS011;14857;41.200;-8.326;2022-08-18T02:29:03;8.32;;;2.88;;
18144;SDS011;14857;41.200;-8.326;2022-08-18T02:31:36;4.15;;;2.03;;
18144;SDS011;14857;41.200;-8.326;2022-08-18T02:34:08;5.05;;;2.13;;
18144;SDS011;14857;41.200;-8.326;2022-08-18T02:36:40;10.20;;;2.70;;
18144;SDS011;14857;41.200;-8.326;2022-08-18T02:39:24;6.00;;;2.15;;
18144;SDS011;14857;41.200;-8.326;2022-08-18T02:41:59;6.03;;;2.47;;
18144;SDS011;14857;41.200;-8.326;2022-08-18T02:44:33;8.80;;;2.75;;
18144;SDS011;14857;41.200;-8.326;2022-08-18T02:47:02;6.90;;;2.45;;
18144;SDS011;14857;41.200;-8.326;2022-08-18T02:49:33;6.60;;;2.33;;
18144;SDS011;14857;41.200;-8.326;2022-08-18T02:52:04;6.15;;;2.00;;
18144;SDS011;14857;41.200;-8.326;2022-08-18T02:54:39;9.35;;;2.83;;
18144;SDS011;14857;41.200;-8.326;2022-08-18T02:57:27;8.45;;;3.22;;
18144;SDS011;14857;41.200;-8.326;2022-08-18T03:00:04;9.63;;;2.60;;
18144;SDS011;14857;41.200;-8.326;2022-08-18T03:02:44;8.52;;;2.42;;
18144;SDS011;14857;41.200;-8.326;2022-08-18T03:05:14;9.18;;;2.60;;
18144;SDS011;14857;41.200;-8.326;2022-08-18T03:07:46;9.48;;;2.53;;
18144;SDS011;14857;41.200;-8.326;2022-08-18T03:10:20;7.28;;;2.67;;
18144;SDS011;14857;41.200;-8.326;2022-08-18T03:13:04;7.00;;;2.63;;
18144;SDS011;14857;41.200;-8.326;2022-08-18T03:15:38;7.32;;;2.80;;
18144;SDS011;14857;41.200;-8.326;2022-08-18T03:18:11;5.85;;;2.20;;
18144;SDS011;14857;41.200;-8.326;2022-08-18T03:20:44;10.45;;;2.40;;
18144;SDS011;14857;41.200;-8.326;2022-08-18T03:23:18;4.88;;;1.92;;
18144;SDS011;14857;41.200;-8.326;2022-08-18T03:26:00;9.60;;;2.55;;
18144;SDS011;14857;41.200;-8.326;2022-08-18T03:29:09;5.47;;;2.28;;
18144;SDS011;14857;41.200;-8.326;2022-08-18T03:31:43;9.00;;;2.70;;
18144;SDS011;14857;41.200;-8.326;2022-08-18T03:34:19;5.47;;;2.10;;
18144;SDS011;14857;41.200;-8.326;2022-08-18T03:36:59;7.00;;;2.65;;
18144;SDS011;14857;41.200;-8.326;2022-08-18T03:39:30;5.63;;;2.78;;
18144;SDS011;14857;41.200;-8.326;2022-08-18T03:42:06;8.23;;;2.55;;
18144;SDS011;14857;41.200;-8.326;2022-08-18T03:44:39;7.47;;;2.17;;
18144;SDS011;14857;41.200;-8.326;2022-08-18T03:47:13;6.00;;;2.38;;
18144;SDS011;14857;41.200;-8.326;2022-08-18T03:49:43;8.75;;;2.78;;
18144;SDS011;14857;41.200;-8.326;2022-08-18T03:52:16;13.13;;;2.38;;
18144;SDS011;14857;41.200;-8.326;2022-08-18T03:54:56;7.50;;;2.72;;
18144;SDS011;14857;41.200;-8.326;2022-08-18T03:57:32;7.53;;;2.42;;
18144;SDS011;14857;41.200;-8.326;2022-08-18T04:00:08;5.80;;;2.33;;
18144;SDS011;14857;41.200;-8.326;2022-08-18T04:05:58;8.60;;;2.40;;
18144;SDS011;14857;41.200;-8.326;2022-08-18T04:08:32;6.85;;;2.00;;
18144;SDS011;14857;41.200;-8.326;2022-08-18T04:11:04;8.70;;;2.42;;
18144;SDS011;14857;41.200;-8.326;2022-08-18T04:13:41;5.10;;;1.98;;
18144;SDS011;14857;41.200;-8.326;2022-08-18T04:16:15;8.80;;;2.42;;
18144;SDS011;14857;41.200;-8.326;2022-08-18T04:18:54;4.28;;;2.13;;
18144;SDS011;14857;41.200;-8.326;2022-08-18T04:21:34;9.68;;;2.13;;
18144;SDS011;14857;41.200;-8.326;2022-08-18T04:24:12;8.55;;;2.30;;
18144;SDS011;14857;41.200;-8.326;2022-08-18T04:26:56;6.30;;;2.53;;
18144;SDS011;14857;41.200;-8.326;2022-08-18T04:29:27;5.38;;;2.42;;
18144;SDS011;14857;41.200;-8.326;2022-08-18T04:32:04;6.13;;;2.70;;
18144;SDS011;14857;41.200;-8.326;2022-08-18T04:34:36;6.68;;;2.30;;
18144;SDS011;14857;41.200;-8.326;2022-08-18T04:37:20;6.63;;;2.50;;
18144;SDS011;14857;41.200;-8.326;2022-08-18T04:39:50;7.95;;;2.47;;
18144;SDS011;14857;41.200;-8.326;2022-08-18T04:42:38;10.73;;;2.58;;
18144;SDS011;14857;41.200;-8.326;2022-08-18T04:45:25;4.28;;;1.90;;
18144;SDS011;14857;41.200;-8.326;2022-08-18T04:51:05;6.63;;;2.67;;
18144;SDS011;14857;41.200;-8.326;2022-08-18T04:54:03;7.93;;;2.55;;
18144;SDS011;14857;41.200;-8.326;2022-08-18T04:56:42;5.43;;;2.42;;
18144;SDS011;14857;41.200;-8.326;2022-08-18T04:59:35;5.13;;;2.42;;
18144;SDS011;14857;41.200;-8.326;2022-08-18T05:02:19;7.45;;;3.00;;
18144;SDS011;14857;41.200;-8.326;2022-08-18T05:05:20;6.07;;;2.35;;
18144;SDS011;14857;41.200;-8.326;2022-08-18T05:08:09;9.40;;;2.35;;
18144;SDS011;14857;41.200;-8.326;2022-08-18T05:11:05;6.15;;;2.30;;
18144;SDS011;14857;41.200;-8.326;2022-08-18T05:14:05;6.78;;;2.50;;
18144;SDS011;14857;41.200;-8.326;2022-08-18T05:16:58;6.57;;;2.75;;
18144;SDS011;14857;41.200;-8.326;2022-08-18T05:20:18;10.40;;;2.58;;
18144;SDS011;14857;41.200;-8.326;2022-08-18T05:23:22;7.95;;;2.42;;
18144;SDS011;14857;41.200;-8.326;2022-08-18T05:26:39;8.13;;;2.90;;
18144;SDS011;14857;41.200;-8.326;2022-08-18T05:29:48;5.63;;;2.20;;
18144;SDS011;14857;41.200;-8.326;2022-08-18T05:32:59;8.35;;;2.70;;
18144;SDS011;14857;41.200;-8.326;2022-08-18T05:35:52;6.80;;;2.65;;
18144;SDS011;14857;41.200;-8.326;2022-08-18T05:39:01;6.80;;;2.83;;
18144;SDS011;14857;41.200;-8.326;2022-08-18T05:42:07;4.85;;;2.35;;
18144;SDS011;14857;41.200;-8.326;2022-08-18T05:48:29;7.65;;;2.38;;
18144;SDS011;14857;41.200;-8.326;2022-08-18T05:51:48;5.10;;;2.30;;
18144;SDS011;14857;41.200;-8.326;2022-08-18T05:55:06;7.10;;;2.10;;
18144;SDS011;14857;41.200;-8.326;2022-08-18T06:02:12;10.15;;;2.70;;
18144;SDS011;14857;41.200;-8.326;2022-08-18T06:05:22;4.95;;;2.15;;
18144;SDS011;14857;41.200;-8.326;2022-08-18T06:09:18;5.35;;;2.40;;
18144;SDS011;14857;41.200;-8.326;2022-08-18T06:12:56;5.03;;;2.60;;
18144;SDS011;14857;41.200;-8.326;2022-08-18T06:25:36;9.50;;;3.63;;
18144;SDS011;14857;41.200;-8.326;2022-08-18T06:29:30;4.18;;;2.17;;
18144;SDS011;14857;41.200;-8.326;2022-08-18T06:32:26;6.35;;;2.35;;
18144;SDS011;14857;41.200;-8.326;2022-08-18T06:35:47;4.28;;;2.30;;
18144;SDS011;14857;41.200;-8.326;2022-08-18T06:38:54;5.95;;;2.55;;
18144;SDS011;14857;41.200;-8.326;2022-08-18T06:42:27;8.38;;;2.65;;
18144;SDS011;14857;41.200;-8.326;2022-08-18T06:45:59;6.13;;;2.20;;
18144;SDS011;14857;41.200;-8.326;2022-08-18T06:50:03;5.70;;;2.58;;
18144;SDS011;14857;41.200;-8.326;2022-08-18T06:57:19;6.30;;;2.25;;
18144;SDS011;14857;41.200;-8.326;2022-08-18T07:05:14;4.20;;;2.28;;
18144;SDS011;14857;41.200;-8.326;2022-08-18T07:09:24;5.25;;;2.05;;
18144;SDS011;14857;41.200;-8.326;2022-08-18T07:12:09;5.97;;;1.98;;
18144;SDS011;14857;41.200;-8.326;2022-08-18T07:15:04;4.90;;;2.00;;
18144;SDS011;14857;41.200;-8.326;2022-08-18T07:17:47;5.93;;;2.25;;
18144;SDS011;14857;41.200;-8.326;2022-08-18T07:20:31;7.18;;;1.95;;
18144;SDS011;14857;41.200;-8.326;2022-08-18T07:23:25;7.30;;;2.70;;
18144;SDS011;14857;41.200;-8.326;2022-08-18T07:29:57;6.88;;;2.22;;
18144;SDS011;14857;41.200;-8.326;2022-08-18T07:32:36;9.70;;;2.60;;
18144;SDS011;14857;41.200;-8.326;2022-08-18T07:35:41;7.40;;;2.95;;
18144;SDS011;14857;41.200;-8.326;2022-08-18T07:44:14;7.00;;;2.65;;
18144;SDS011;14857;41.200;-8.326;2022-08-18T08:08:19;6.68;;;2.90;;
18144;SDS011;14857;41.200;-8.326;2022-08-18T08:10:42;6.95;;;3.78;;
18144;SDS011;14857;41.200;-8.326;2022-08-18T08:14:05;4.72;;;2.10;;
18144;SDS011;14857;41.200;-8.326;2022-08-18T08:17:12;4.45;;;1.90;;
18144;SDS011;14857;41.200;-8.326;2022-08-18T08:20:16;9.07;;;3.90;;
18144;SDS011;14857;41.200;-8.326;2022-08-18T08:23:22;6.22;;;1.80;;
18144;SDS011;14857;41.200;-8.326;2022-08-18T08:26:48;4.05;;;1.48;;
18144;SDS011;14857;41.200;-8.326;2022-08-18T08:30:04;4.63;;;1.35;;
18144;SDS011;14857;41.200;-8.326;2022-08-18T08:33:18;8.32;;;1.70;;
18144;SDS011;14857;41.200;-8.326;2022-08-18T08:36:29;4.47;;;1.73;;
18144;SDS011;14857;41.200;-8.326;2022-08-18T08:39:55;2.53;;;1.20;;
18144;SDS011;14857;41.200;-8.326;2022-08-18T08:43:24;4.07;;;1.90;;
18144;SDS011;14857;41.200;-8.326;2022-08-18T08:46:40;3.17;;;1.63;;
18144;SDS011;14857;41.200;-8.326;2022-08-18T08:49:56;4.63;;;1.80;;
18144;SDS011;14857;41.200;-8.326;2022-08-18T08:52:36;4.30;;;1.73;;
18144;SDS011;14857;41.200;-8.326;2022-08-18T08:55:30;4.00;;;1.38;;
18144;SDS011;14857;41.200;-8.326;2022-08-18T08:59:23;5.22;;;2.03;;
18144;SDS011;14857;41.200;-8.326;2022-08-18T09:01:35;3.55;;;1.50;;
18144;SDS011;14857;41.200;-8.326;2022-08-18T09:04:15;4.55;;;1.30;;
18144;SDS011;14857;41.200;-8.326;2022-08-18T09:08:16;6.90;;;2.15;;
18144;SDS011;14857;41.200;-8.326;2022-08-18T09:11:09;2.83;;;1.50;;
18144;SDS011;14857;41.200;-8.326;2022-08-18T09:17:22;3.95;;;1.70;;
18144;SDS011;14857;41.200;-8.326;2022-08-18T09:20:14;3.15;;;1.30;;
18144;SDS011;14857;41.200;-8.326;2022-08-18T09:22:57;3.53;;;1.05;;
18144;SDS011;14857;41.200;-8.326;2022-08-18T09:25:45;2.90;;;1.33;;
18144;SDS011;14857;41.200;-8.326;2022-08-18T09:28:18;5.28;;;1.40;;
18144;SDS011;14857;41.200;-8.326;2022-08-18T09:33:49;1.85;;;1.10;;
18144;SDS011;14857;41.200;-8.326;2022-08-18T09:39:41;3.33;;;1.30;;
18144;SDS011;14857;41.200;-8.326;2022-08-18T09:43:09;2.58;;;1.33;;
18144;SDS011;14857;41.200;-8.326;2022-08-18T09:45:53;6.18;;;1.30;;
18144;SDS011;14857;41.200;-8.326;2022-08-18T09:48:26;7.30;;;1.80;;
18144;SDS011;14857;41.200;-8.326;2022-08-18T09:54:17;4.00;;;1.38;;
18144;SDS011;14857;41.200;-8.326;2022-08-18T10:03:22;9.63;;;2.67;;
18144;SDS011;14857;41.200;-8.326;2022-08-18T10:06:16;2.85;;;1.30;;
18144;SDS011;14857;41.200;-8.326;2022-08-18T10:09:35;4.25;;;1.65;;
18144;SDS011;14857;41.200;-8.326;2022-08-18T10:15:41;3.83;;;1.20;;
18144;SDS011;14857;41.200;-8.326;2022-08-18T10:18:34;9.02;;;3.30;;
18144;SDS011;14857;41.200;-8.326;2022-08-18T10:24:36;3.50;;;2.15;;
18144;SDS011;14857;41.200;-8.326;2022-08-18T10:34:12;2.30;;;1.23;;
18144;SDS011;14857;41.200;-8.326;2022-08-18T10:37:18;4.18;;;1.40;;
18144;SDS011;14857;41.200;-8.326;2022-08-18T10:39:58;8.45;;;4.45;;
18144;SDS011;14857;41.200;-8.326;2022-08-18T10:43:12;19.27;;;11.30;;
18144;SDS011;14857;41.200;-8.326;2022-08-18T10:46:30;20.25;;;9.55;;
18144;SDS011;14857;41.200;-8.326;2022-08-18T10:49:29;23.85;;;12.35;;
18144;SDS011;14857;41.200;-8.326;2022-08-18T10:52:33;11.43;;;5.85;;
18144;SDS011;14857;41.200;-8.326;2022-08-18T10:55:30;3.15;;;1.63;;
18144;SDS011;14857;41.200;-8.326;2022-08-18T10:58:27;9.23;;;3.13;;
18144;SDS011;14857;41.200;-8.326;2022-08-18T11:01:09;1.70;;;0.90;;
18144;SDS011;14857;41.200;-8.326;2022-08-18T11:04:24;1.13;;;0.63;;
18144;SDS011;14857;41.200;-8.326;2022-08-18T11:07:05;2.90;;;0.93;;
18144;SDS011;14857;41.200;-8.326;2022-08-18T11:09:44;2.58;;;1.38;;
18144;SDS011;14857;41.200;-8.326;2022-08-18T11:12:43;2.22;;;1.20;;
18144;SDS011;14857;41.200;-8.326;2022-08-18T11:15:53;4.95;;;1.85;;
18144;SDS011;14857;41.200;-8.326;2022-08-18T11:18:45;3.50;;;1.15;;
18144;SDS011;14857;41.200;-8.326;2022-08-18T11:21:47;2.42;;;0.98;;
18144;SDS011;14857;41.200;-8.326;2022-08-18T11:24:30;4.13;;;1.50;;
18144;SDS011;14857;41.200;-8.326;2022-08-18T11:27:18;3.00;;;1.20;;
18144;SDS011;14857;41.200;-8.326;2022-08-18T11:29:59;2.10;;;1.20;;
18144;SDS011;14857;41.200;-8.326;2022-08-18T11:32:30;2.28;;;1.20;;
18144;SDS011;14857;41.200;-8.326;2022-08-18T11:35:02;3.13;;;1.33;;
18144;SDS011;14857;41.200;-8.326;2022-08-18T11:37:36;3.58;;;0.85;;
18144;SDS011;14857;41.200;-8.326;2022-08-18T11:40:25;1.92;;;1.00;;
18144;SDS011;14857;41.200;-8.326;2022-08-18T11:43:22;1.92;;;0.90;;
18144;SDS011;14857;41.200;-8.326;2022-08-18T11:46:10;1.70;;;0.98;;
18144;SDS011;14857;41.200;-8.326;2022-08-18T11:48:54;4.10;;;1.23;;
18144;SDS011;14857;41.200;-8.326;2022-08-18T11:51:24;2.25;;;1.30;;
18144;SDS011;14857;41.200;-8.326;2022-08-18T11:53:57;2.20;;;1.02;;
18144;SDS011;14857;41.200;-8.326;2022-08-18T11:56:33;3.83;;;1.58;;
18144;SDS011;14857;41.200;-8.326;2022-08-18T11:59:30;3.92;;;1.85;;
18144;SDS011;14857;41.200;-8.326;2022-08-18T12:02:19;3.20;;;1.05;;
18144;SDS011;14857;41.200;-8.326;2022-08-18T12:04:51;5.35;;;1.67;;
18144;SDS011;14857;41.200;-8.326;2022-08-18T12:07:39;3.13;;;0.80;;
18144;SDS011;14857;41.200;-8.326;2022-08-18T12:10:25;2.05;;;1.00;;
18144;SDS011;14857;41.200;-8.326;2022-08-18T12:12:55;0.88;;;0.70;;
18144;SDS011;14857;41.200;-8.326;2022-08-18T12:15:28;2.40;;;0.90;;
18144;SDS011;14857;41.200;-8.326;2022-08-18T12:18:13;2.40;;;1.17;;
18144;SDS011;14857;41.200;-8.326;2022-08-18T12:20:54;2.55;;;1.10;;
18144;SDS011;14857;41.200;-8.326;2022-08-18T12:23:24;1.83;;;1.00;;
18144;SDS011;14857;41.200;-8.326;2022-08-18T12:26:15;2.90;;;1.00;;
18144;SDS011;14857;41.200;-8.326;2022-08-18T12:29:07;5.15;;;1.27;;
18144;SDS011;14857;41.200;-8.326;2022-08-18T12:31:56;2.15;;;1.02;;
18144;SDS011;14857;41.200;-8.326;2022-08-18T12:34:25;5.10;;;1.10;;
18144;SDS011;14857;41.200;-8.326;2022-08-18T12:36:56;3.30;;;0.98;;
18144;SDS011;14857;41.200;-8.326;2022-08-18T12:39:27;4.38;;;1.10;;
18144;SDS011;14857;41.200;-8.326;2022-08-18T12:41:59;2.90;;;1.05;;
18144;SDS011;14857;41.200;-8.326;2022-08-18T12:44:31;2.45;;;0.90;;
18144;SDS011;14857;41.200;-8.326;2022-08-18T12:47:01;1.67;;;1.05;;
18144;SDS011;14857;41.200;-8.326;2022-08-18T12:49:33;3.53;;;1.35;;
18144;SDS011;14857;41.200;-8.326;2022-08-18T12:52:03;2.03;;;0.88;;
18144;SDS011;14857;41.200;-8.326;2022-08-18T12:54:41;2.15;;;1.02;;
18144;SDS011;14857;41.200;-8.326;2022-08-18T12:57:24;5.03;;;1.13;;
18144;SDS011;14857;41.200;-8.326;2022-08-18T13:00:17;1.77;;;0.93;;
18144;SDS011;14857;41.200;-8.326;2022-08-18T13:02:55;3.95;;;1.60;;
18144;SDS011;14857;41.200;-8.326;2022-08-18T13:05:24;3.75;;;1.00;;
18144;SDS011;14857;41.200;-8.326;2022-08-18T13:07:56;1.67;;;0.80;;
18144;SDS011;14857;41.200;-8.326;2022-08-18T13:10:30;2.50;;;0.82;;
18144;SDS011;14857;41.200;-8.326;2022-08-18T13:13:13;1.73;;;0.93;;
18144;SDS011;14857;41.200;-8.326;2022-08-18T13:15:43;2.47;;;1.10;;
18144;SDS011;14857;41.200;-8.326;2022-08-18T13:18:27;1.30;;;0.90;;
18144;SDS011;14857;41.200;-8.326;2022-08-18T13:20:56;3.45;;;1.05;;
18144;SDS011;14857;41.200;-8.326;2022-08-18T13:23:28;5.75;;;1.35;;
18144;SDS011;14857;41.200;-8.326;2022-08-18T13:25:58;2.35;;;0.90;;
18144;SDS011;14857;41.200;-8.326;2022-08-18T13:28:30;1.15;;;1.05;;
18144;SDS011;14857;41.200;-8.326;2022-08-18T13:31:21;2.25;;;0.80;;
18144;SDS011;14857;41.200;-8.326;2022-08-18T13:33:52;2.78;;;1.08;;
18144;SDS011;14857;41.200;-8.326;2022-08-18T13:36:27;2.38;;;1.10;;
18144;SDS011;14857;41.200;-8.326;2022-08-18T13:39:14;4.05;;;1.08;;
18144;SDS011;14857;41.200;-8.326;2022-08-18T13:41:45;2.60;;;1.20;;
18144;SDS011;14857;41.200;-8.326;2022-08-18T13:44:17;3.50;;;1.00;;
18144;SDS011;14857;41.200;-8.326;2022-08-18T13:46:54;1.42;;;1.10;;
18144;SDS011;14857;41.200;-8.326;2022-08-18T13:49:24;1.95;;;1.08;;
18144;SDS011;14857;41.200;-8.326;2022-08-18T13:51:56;0.95;;;0.52;;
18144;SDS011;14857;41.200;-8.326;2022-08-18T13:54:29;2.80;;;1.02;;
18144;SDS011;14857;41.200;-8.326;2022-08-18T13:57:04;2.97;;;1.00;;
18144;SDS011;14857;41.200;-8.326;2022-08-18T13:59:39;1.67;;;1.05;;
18144;SDS011;14857;41.200;-8.326;2022-08-18T14:02:12;1.88;;;1.08;;
18144;SDS011;14857;41.200;-8.326;2022-08-18T14:04:43;5.03;;;1.67;;
18144;SDS011;14857;41.200;-8.326;2022-08-18T14:07:12;3.25;;;1.45;;
18144;SDS011;14857;41.200;-8.326;2022-08-18T14:09:50;4.85;;;1.13;;
18144;SDS011;14857;41.200;-8.326;2022-08-18T14:12:22;2.78;;;1.02;;
18144;SDS011;14857;41.200;-8.326;2022-08-18T14:15:00;2.42;;;1.33;;
18144;SDS011;14857;41.200;-8.326;2022-08-18T14:17:29;1.80;;;0.93;;
18144;SDS011;14857;41.200;-8.326;2022-08-18T14:19:58;1.45;;;0.90;;
18144;SDS011;14857;41.200;-8.326;2022-08-18T14:22:53;1.35;;;0.90;;
18144;SDS011;14857;41.200;-8.326;2022-08-18T14:25:50;2.63;;;1.05;;
18144;SDS011;14857;41.200;-8.326;2022-08-18T14:28:36;2.60;;;1.00;;
18144;SDS011;14857;41.200;-8.326;2022-08-18T14:31:08;3.10;;;1.23;;
18144;SDS011;14857;41.200;-8.326;2022-08-18T14:33:38;2.72;;;0.85;;
18144;SDS011;14857;41.200;-8.326;2022-08-18T14:36:19;3.00;;;0.90;;
18144;SDS011;14857;41.200;-8.326;2022-08-18T14:38:57;3.33;;;1.17;;
18144;SDS011;14857;41.200;-8.326;2022-08-18T14:41:36;2.83;;;1.00;;
18144;SDS011;14857;41.200;-8.326;2022-08-18T14:44:15;3.70;;;1.02;;
18144;SDS011;14857;41.200;-8.326;2022-08-18T14:46:52;1.23;;;0.80;;
18144;SDS011;14857;41.200;-8.326;2022-08-18T14:49:23;0.70;;;0.70;;
18144;SDS011;14857;41.200;-8.326;2022-08-18T14:51:55;2.22;;;0.80;;
18144;SDS011;14857;41.200;-8.326;2022-08-18T14:54:25;2.08;;;0.80;;
18144;SDS011;14857;41.200;-8.326;2022-08-18T14:56:56;6.35;;;1.55;;
18144;SDS011;14857;41.200;-8.326;2022-08-18T14:59:35;2.30;;;0.85;;
18144;SDS011;14857;41.200;-8.326;2022-08-18T15:02:05;2.78;;;0.95;;
18144;SDS011;14857;41.200;-8.326;2022-08-18T15:04:39;2.00;;;1.02;;
18144;SDS011;14857;41.200;-8.326;2022-08-18T15:07:22;1.70;;;1.13;;
18144;SDS011;14857;41.200;-8.326;2022-08-18T15:09:51;2.17;;;0.80;;
18144;SDS011;14857;41.200;-8.326;2022-08-18T15:12:40;1.73;;;1.13;;
18144;SDS011;14857;41.200;-8.326;2022-08-18T15:15:10;1.50;;;1.10;;
18144;SDS011;14857;41.200;-8.326;2022-08-18T15:17:45;1.50;;;0.88;;
18144;SDS011;14857;41.200;-8.326;2022-08-18T15:20:19;4.65;;;1.30;;
18144;SDS011;14857;41.200;-8.326;2022-08-18T15:22:58;1.50;;;1.00;;
18144;SDS011;14857;41.200;-8.326;2022-08-18T15:25:50;3.58;;;0.98;;
18144;SDS011;14857;41.200;-8.326;2022-08-18T15:28:20;1.58;;;0.93;;
18144;SDS011;14857;41.200;-8.326;2022-08-18T15:30:53;3.70;;;1.40;;
18144;SDS011;14857;41.200;-8.326;2022-08-18T15:33:43;5.20;;;1.15;;
18144;SDS011;14857;41.200;-8.326;2022-08-18T15:36:17;3.40;;;0.98;;
18144;SDS011;14857;41.200;-8.326;2022-08-18T15:38:55;2.35;;;1.50;;
18144;SDS011;14857;41.200;-8.326;2022-08-18T15:41:28;3.13;;;1.20;;
18144;SDS011;14857;41.200;-8.326;2022-08-18T15:44:04;4.93;;;1.40;;
18144;SDS011;14857;41.200;-8.326;2022-08-18T15:46:34;4.00;;;1.52;;
18144;SDS011;14857;41.200;-8.326;2022-08-18T15:49:07;3.47;;;1.38;;
18144;SDS011;14857;41.200;-8.326;2022-08-18T15:51:40;2.70;;;1.40;;
18144;SDS011;14857;41.200;-8.326;2022-08-18T15:54:11;3.78;;;1.73;;
18144;SDS011;14857;41.200;-8.326;2022-08-18T15:56:40;6.93;;;1.50;;
18144;SDS011;14857;41.200;-8.326;2022-08-18T15:59:09;2.05;;;1.20;;
18144;SDS011;14857;41.200;-8.326;2022-08-18T16:01:38;4.20;;;1.65;;
18144;SDS011;14857;41.200;-8.326;2022-08-18T16:04:11;4.80;;;1.63;;
18144;SDS011;14857;41.200;-8.326;2022-08-18T16:06:41;4.35;;;2.33;;
18144;SDS011;14857;41.200;-8.326;2022-08-18T16:09:14;3.50;;;1.77;;
18144;SDS011;14857;41.200;-8.326;2022-08-18T16:11:43;5.88;;;2.13;;
18144;SDS011;14857;41.200;-8.326;2022-08-18T16:14:13;8.48;;;1.77;;
18144;SDS011;14857;41.200;-8.326;2022-08-18T16:16:42;4.15;;;1.65;;
18144;SDS011;14857;41.200;-8.326;2022-08-18T16:19:12;12.65;;;1.70;;
18144;SDS011;14857;41.200;-8.326;2022-08-18T16:21:43;2.80;;;1.55;;
18144;SDS011;14857;41.200;-8.326;2022-08-18T16:24:12;6.40;;;1.75;;
18144;SDS011;14857;41.200;-8.326;2022-08-18T16:26:44;5.47;;;2.00;;
18144;SDS011;14857;41.200;-8.326;2022-08-18T16:29:12;3.47;;;1.67;;
18144;SDS011;14857;41.200;-8.326;2022-08-18T16:31:41;4.80;;;2.15;;
18144;SDS011;14857;41.200;-8.326;2022-08-18T16:34:10;8.48;;;2.58;;
18144;SDS011;14857;41.200;-8.326;2022-08-18T16:36:40;5.68;;;2.30;;
18144;SDS011;14857;41.200;-8.326;2022-08-18T16:39:09;6.10;;;2.35;;
18144;SDS011;14857;41.200;-8.326;2022-08-18T16:41:38;5.65;;;1.90;;
18144;SDS011;14857;41.200;-8.326;2022-08-18T16:44:07;4.47;;;2.05;;
18144;SDS011;14857;41.200;-8.326;2022-08-18T16:46:35;6.90;;;2.10;;
18144;SDS011;14857;41.200;-8.326;2022-08-18T16:49:04;6.95;;;2.20;;
18144;SDS011;14857;41.200;-8.326;2022-08-18T16:51:34;4.72;;;2.08;;
18144;SDS011;14857;41.200;-8.326;2022-08-18T16:54:05;5.30;;;2.00;;
18144;SDS011;14857;41.200;-8.326;2022-08-18T16:56:34;7.70;;;2.58;;
18144;SDS011;14857;41.200;-8.326;2022-08-18T16:59:04;7.00;;;2.20;;
18144;SDS011;14857;41.200;-8.326;2022-08-18T17:01:50;5.40;;;2.00;;
18144;SDS011;14857;41.200;-8.326;2022-08-18T17:04:36;6.53;;;2.30;;
18144;SDS011;14857;41.200;-8.326;2022-08-18T17:07:05;6.80;;;2.33;;
18144;SDS011;14857;41.200;-8.326;2022-08-18T17:09:36;6.10;;;2.28;;
18144;SDS011;14857;41.200;-8.326;2022-08-18T17:12:04;7.13;;;2.15;;
18144;SDS011;14857;41.200;-8.326;2022-08-18T17:14:33;4.13;;;1.90;;
18144;SDS011;14857;41.200;-8.326;2022-08-18T17:17:02;6.53;;;1.75;;
18144;SDS011;14857;41.200;-8.326;2022-08-18T17:19:33;6.25;;;2.10;;
18144;SDS011;14857;41.200;-8.326;2022-08-18T17:22:03;7.25;;;2.40;;
18144;SDS011;14857;41.200;-8.326;2022-08-18T17:24:34;6.72;;;2.20;;
18144;SDS011;14857;41.200;-8.326;2022-08-18T17:27:13;5.47;;;2.33;;
18144;SDS011;14857;41.200;-8.326;2022-08-18T17:29:56;4.47;;;2.17;;
18144;SDS011;14857;41.200;-8.326;2022-08-18T17:32:30;8.25;;;2.15;;
18144;SDS011;14857;41.200;-8.326;2022-08-18T17:35:06;6.72;;;2.50;;
18144;SDS011;14857;41.200;-8.326;2022-08-18T17:37:39;4.85;;;2.55;;
18144;SDS011;14857;41.200;-8.326;2022-08-18T17:40:22;9.38;;;2.78;;
18144;SDS011;14857;41.200;-8.326;2022-08-18T17:42:54;5.22;;;2.25;;
18144;SDS011;14857;41.200;-8.326;2022-08-18T17:45:24;7.53;;;2.53;;
18144;SDS011;14857;41.200;-8.326;2022-08-18T17:48:04;6.90;;;2.25;;
18144;SDS011;14857;41.200;-8.326;2022-08-18T17:50:37;6.60;;;2.47;;
18144;SDS011;14857;41.200;-8.326;2022-08-18T17:53:26;5.60;;;2.70;;
18144;SDS011;14857;41.200;-8.326;2022-08-18T17:56:01;8.38;;;2.55;;
18144;SDS011;14857;41.200;-8.326;2022-08-18T17:58:36;8.18;;;2.78;;
18144;SDS011;14857;41.200;-8.326;2022-08-18T18:01:09;7.40;;;2.75;;
18144;SDS011;14857;41.200;-8.326;2022-08-18T18:03:38;7.30;;;2.75;;